Atlantic - Newfoundland: Past 24 Hour Conditions

 

Mary's Harbour

08:30 PM NDT 25 October 2014
This table is a summary of hourly weather conditions for the past 24 hours.
Date / Time
(NDT)
Wind(knots) Conditions Visibility(km) Pressure(kPa) Air tempC) Relative humidity(%) Dew pointC)
25 October 2014
20:30 NE 12 gust 19 Cloudy 16 101.1 2 77 -1
19:30 NE 9 gust 18 Cloudy 16 101.1 3 72 -2
18:30 NE 13 gust 19 Cloudy 16 101.1 3 71 -2
17:30 NE 13 gust 20 Cloudy 16 101.1 3 70 -2
16:30 NE 15 Cloudy 15 101.1 3 68 -3
15:30 NE 15 gust 20 Cloudy 16 101.1 3 66 -3
14:30 NE 15 gust 22 Cloudy 15 101.1 3 68 -3
13:30 NE 12 gust 21 Cloudy 11 101.1 3 70 -2
12:30 NE 15 gust 24 Cloudy 11 101.2 3 68 -3
11:30 ENE 15 gust 21 Haze 6 101.2 3 70 -2
10:30 NE 13 gust 21 Haze 8 101.3 3 71 -2
9:30 NE 15 gust 23 Cloudy 13 101.3 2 71 -3
8:30 NE 14 gust 21 Cloudy 16 101.3 2 74 -2
7:30 NE 16 gust 23 Haze 10 101.3 2 72 -2
6:30 NE 15 gust 23 Cloudy 15 101.3 2 74 -2
5:30 NE 13 gust 20 Cloudy 16 101.3 2 78 -2
4:30 NNE 13 gust 23 Light Rain 15 101.3 2 85 -1
3:30 NNE 15 gust 21 Cloudy 16 101.3 2 79 -1
2:30 NE 15 gust 21 Partly Cloudy 16 101.4 2 86 0
1:30 NE 13 gust 21 Mostly Cloudy 16 101.4 2 88 0
0:30 NE 11 gust 17 Partly Cloudy 16 101.5 2 89 1
24 October 2014
23:30 NNE 10 gust 15 Cloudy 16 101.6 2 90 1
22:30 NE 10 gust 18 Cloudy 16 101.6 2 92 1
21:30 NE 8 gust 16 Cloudy 16 101.7 3 88 1
20:30 NE 9 gust 15 Cloudy 16 101.7 3 88 1
 
Map of Atlantic - Newfoundland marine weather areas Southwestern Grand Banks - 44138 Banquereau - 44139 Tail of the Bank - 44140 Nickerson Bank - 44251 Northeast Burgeo Bank - 44255 Blanc-Sablon Airport Cap Whittle Chevery Natashquan Airport Heath Point Miscou Island Grand Étang Ingonish Beach North Mountain St.Paul Island J.A. Douglas McCurdy Sydney Airport Charlottetown Airport East Point North Cape Argentia Bonavista Burgeo Cape Race Corner Brook Daniel's Harbour Englee Ferolle Point La Scie Port aux Basques Rocky Harbour Sagona Island St. Anthony Airport St. John's Int'l Airport St. Lawrence Stephenville Airport Twillingate Winterland Wreckhouse Cartwright Airport Mary's Harbour Grates Cove Pool's Island Marticot Island Long Pond Îles de la Madeleine Airport
Legend: buoyBuoy land stationLand Station